Albert City, Iowa
Current Conditions -  °F | °C
As of 2:35 AM on Sunday 21 Dec 2014 (Local Time) from KSLB Reporting Station
Moderate Fog Moderate Fog  
Wind Chill: 24°   Ceiling: 200
Heat Index: 32°   Visibility: 0.25mi
Dew Point: 32°   Wind: 10mph
Humidity: 100%   Direction: 150°SSE
Pressure: 29.95"   Gusts: NA
Location:  42.78°N, 94.95°W
Report Text: KSLB 210835Z AUTO 15009KT 1/4SM FZFG OVC002 M00/00 A2995 RMK AO2 VIS M1/4V5
Loading
Personal Weather Stations






























Interactive Weather Map New forecast layout! Learn more

10-Day Weather Forecast

Advertisements
Track Severe Weather on mobile